Time;durP1;ratioP1;P1;durP2;ratioP2;P2;SDS_P1;SDS_P2;PMS_P1;PMS_P2;Temp;Humidity;BMP_temperature;BMP_pressure;BME280_temperature;BME280_humidity;BME280_pressure;Samples;Min_cycle;Max_cycle;Signal;HPM_P1;HPM_P2
2024/03/17 00:00:27;;;;;;;5.60;5.10;;;10.90;99.90;;;;;;5042538;28;20218;-75
2024/03/17 00:02:53;;;;;;;6.63;6.03;;;10.90;99.90;;;;;;5009269;28;20221;-75
2024/03/17 00:05:21;;;;;;;7.13;6.53;;;10.90;99.90;;;;;;5044941;28;20248;-74
2024/03/17 00:07:49;;;;;;;6.07;5.57;;;10.90;99.90;;;;;;5041038;28;20307;-72
2024/03/17 00:10:16;;;;;;;6.10;5.55;;;10.90;99.90;;;;;;5040927;28;20210;-73
2024/03/17 00:12:42;;;;;;;6.07;5.57;;;10.90;99.90;;;;;;5043385;28;20340;-75
2024/03/17 00:15:10;;;;;;;6.40;5.90;;;10.90;99.90;;;;;;5046025;28;20304;-74
2024/03/17 00:17:36;;;;;;;5.68;5.18;;;10.90;99.90;;;;;;5043003;28;20237;-77
2024/03/17 00:20:11;;;;;;;6.03;5.53;;;10.80;99.90;;;;;;5045296;28;20214;-76
2024/03/17 00:22:39;;;;;;;6.00;5.50;;;10.80;99.90;;;;;;5042557;28;20241;-76
2024/03/17 00:25:10;;;;;;;6.10;5.50;;;10.80;99.90;;;;;;5042382;28;20213;-76
2024/03/17 00:27:42;;;;;;;6.47;5.88;;;10.80;99.90;;;;;;5041887;28;20242;-77
2024/03/17 00:30:12;;;;;;;6.15;5.63;;;10.70;99.90;;;;;;5043660;28;20770;-78
2024/03/17 00:32:38;;;;;;;5.40;4.90;;;10.70;99.90;;;;;;5041274;28;20272;-74
2024/03/17 00:35:08;;;;;;;6.38;5.78;;;10.60;99.90;;;;;;5048852;28;20696;-74
2024/03/17 00:37:34;;;;;;;6.20;5.65;;;10.60;99.90;;;;;;5042391;28;20234;-74
2024/03/17 00:40:01;;;;;;;6.57;5.97;;;10.60;99.90;;;;;;5019884;28;20228;-73
2024/03/17 00:42:29;;;;;;;5.85;5.22;;;10.60;99.90;;;;;;5036056;28;20214;-76
2024/03/17 00:44:56;;;;;;;5.88;5.38;;;10.60;99.90;;;;;;5034826;28;20225;-76
2024/03/17 00:47:23;;;;;;;5.60;5.10;;;10.60;99.90;;;;;;5049747;28;20282;-75
2024/03/17 00:49:51;;;;;;;6.57;5.95;;;10.50;99.90;;;;;;5045996;28;20238;-77
2024/03/17 00:52:17;;;;;;;5.82;5.32;;;10.50;99.90;;;;;;5027057;28;20225;-75
2024/03/17 00:54:44;;;;;;;4.97;4.57;;;10.60;99.90;;;;;;5027869;28;21555;-78
2024/03/17 00:57:11;;;;;;;5.35;4.85;;;10.50;99.90;;;;;;5044517;28;20945;-76
2024/03/17 00:59:39;;;;;;;5.15;4.65;;;10.60;99.90;;;;;;5047437;28;20223;-75
2024/03/17 01:02:06;;;;;;;5.72;5.22;;;10.50;99.90;;;;;;5036023;28;20222;-74
2024/03/17 01:04:33;;;;;;;6.35;5.82;;;10.50;99.90;;;;;;5051643;28;20219;-75
2024/03/17 01:07:01;;;;;;;6.00;5.50;;;10.50;99.90;;;;;;5051475;28;20257;-78
2024/03/17 01:09:28;;;;;;;6.05;5.55;;;10.50;99.90;;;;;;5030697;28;20297;-74
2024/03/17 01:11:54;;;;;;;6.18;5.68;;;10.50;99.90;;;;;;5030463;28;20918;-77
2024/03/17 01:14:22;;;;;;;6.38;5.78;;;10.40;99.90;;;;;;5046084;28;20246;-75
2024/03/17 01:16:50;;;;;;;5.82;5.28;;;10.40;99.90;;;;;;5045763;28;20255;-78
2024/03/17 01:19:18;;;;;;;5.75;5.25;;;10.40;99.90;;;;;;5047442;28;20225;-75
2024/03/17 01:21:44;;;;;;;5.35;4.88;;;10.30;99.90;;;;;;5026605;28;20218;-74
2024/03/17 01:24:11;;;;;;;5.88;5.15;;;10.30;99.90;;;;;;5045886;28;20587;-73
2024/03/17 01:26:37;;;;;;;6.13;5.57;;;10.30;99.90;;;;;;5048501;28;20251;-74
2024/03/17 01:29:05;;;;;;;5.20;4.78;;;10.30;99.90;;;;;;5032129;28;20942;-72
2024/03/17 01:31:31;;;;;;;5.07;4.57;;;10.30;99.90;;;;;;5026441;28;20229;-74
2024/03/17 01:33:59;;;;;;;5.32;4.78;;;10.30;99.90;;;;;;5047810;28;20218;-75
2024/03/17 01:36:25;;;;;;;5.75;5.22;;;10.30;99.90;;;;;;5025702;28;20238;-74
2024/03/17 01:38:52;;;;;;;5.65;5.15;;;10.20;99.90;;;;;;5048702;28;20266;-74
2024/03/17 01:41:18;;;;;;;6.50;5.85;;;10.20;99.90;;;;;;5046602;28;20242;-73
2024/03/17 01:43:45;;;;;;;6.07;5.30;;;10.10;99.90;;;;;;5026451;28;20296;-75
2024/03/17 01:46:13;;;;;;;5.95;5.45;;;10.10;99.90;;;;;;5029809;28;20222;-73
2024/03/17 01:48:41;;;;;;;6.65;6.05;;;10.20;99.90;;;;;;5027162;28;20246;-73
2024/03/17 01:51:10;;;;;;;6.68;5.32;;;10.10;99.90;;;;;;5043883;28;20246;-74
2024/03/17 01:53:39;;;;;;;6.20;5.70;;;10.10;99.90;;;;;;5045650;28;20257;-74
2024/03/17 01:56:08;;;;;;;6.85;6.13;;;10.00;99.90;;;;;;5044962;28;20258;-74
2024/03/17 01:58:37;;;;;;;6.57;6.03;;;10.00;99.90;;;;;;5048826;28;20246;-73
2024/03/17 02:01:04;;;;;;;5.47;4.97;;;9.90;99.90;;;;;;5045159;28;20235;-73
2024/03/17 02:03:31;;;;;;;6.30;5.72;;;9.90;99.90;;;;;;5047038;28;20676;-74
2024/03/17 02:05:58;;;;;;;5.93;5.32;;;9.90;99.90;;;;;;5027183;28;20222;-73
2024/03/17 02:08:26;;;;;;;6.07;5.57;;;9.80;99.90;;;;;;5049373;28;20241;-73
2024/03/17 02:10:54;;;;;;;4.47;4.07;;;9.80;99.90;;;;;;5049098;28;20222;-73
2024/03/17 02:13:21;;;;;;;6.05;5.45;;;9.80;99.90;;;;;;5031173;28;20284;-75
2024/03/17 02:15:47;;;;;;;6.60;5.97;;;9.80;99.90;;;;;;5047349;28;20220;-75
2024/03/17 02:18:14;;;;;;;7.82;5.68;;;9.80;99.90;;;;;;5026237;28;20735;-73
2024/03/17 02:20:58;;;;;;;5.78;4.90;;;9.70;99.90;;;;;;5031644;28;20261;-75
2024/03/17 02:23:27;;;;;;;4.97;4.57;;;9.70;99.90;;;;;;5048782;28;20309;-74
2024/03/17 02:25:54;;;;;;;5.30;4.80;;;9.70;99.90;;;;;;5048120;28;20241;-73
2024/03/17 02:28:22;;;;;;;4.75;4.35;;;9.70;99.90;;;;;;5032227;28;20925;-75
2024/03/17 02:30:48;;;;;;;5.38;4.88;;;9.70;99.90;;;;;;5031673;28;20298;-73
2024/03/17 02:33:15;;;;;;;4.95;4.55;;;9.70;99.90;;;;;;5027285;28;20234;-72
2024/03/17 02:35:41;;;;;;;5.05;4.65;;;9.70;99.90;;;;;;5053069;28;20245;-73
2024/03/17 02:38:09;;;;;;;4.30;3.90;;;9.60;99.90;;;;;;5045257;28;20321;-73
2024/03/17 02:40:38;;;;;;;4.45;4.15;;;9.60;99.90;;;;;;5046083;28;20246;-75
2024/03/17 02:43:06;;;;;;;4.55;4.15;;;9.60;99.90;;;;;;5049748;28;20224;-74
2024/03/17 02:45:33;;;;;;;4.95;4.55;;;9.50;99.90;;;;;;5043072;28;20234;-74
2024/03/17 02:48:00;;;;;;;4.85;4.45;;;9.50;99.90;;;;;;5025036;28;20243;-73
2024/03/17 02:50:27;;;;;;;4.25;3.92;;;9.50;99.90;;;;;;5026842;28;20793;-73
2024/03/17 02:52:54;;;;;;;4.63;4.25;;;9.40;99.90;;;;;;5047421;28;20229;-75
2024/03/17 02:55:21;;;;;;;4.10;3.80;;;9.40;99.90;;;;;;5049253;28;20935;-76
2024/03/17 02:57:50;;;;;;;4.55;4.20;;;9.40;99.90;;;;;;5045861;28;20317;-74
2024/03/17 03:00:19;;;;;;;4.20;3.90;;;9.40;99.90;;;;;;5045938;28;20237;-75
2024/03/17 03:02:48;;;;;;;4.40;4.00;;;9.30;99.90;;;;;;5046996;28;20227;-74
2024/03/17 03:05:15;;;;;;;4.10;3.80;;;9.30;99.90;;;;;;5027163;28;20969;-73
2024/03/17 03:07:43;;;;;;;4.13;3.83;;;9.40;99.90;;;;;;5047699;28;20226;-75
2024/03/17 03:10:10;;;;;;;4.95;4.35;;;9.40;99.90;;;;;;5029942;28;20219;-75
2024/03/17 03:12:37;;;;;;;4.95;4.18;;;9.40;99.90;;;;;;5045144;28;20254;-74
2024/03/17 03:15:08;;;;;;;3.80;3.50;;;9.30;99.90;;;;;;5042080;28;20250;-76
2024/03/17 03:17:35;;;;;;;3.72;3.42;;;9.30;99.90;;;;;;5039882;28;20239;-75
2024/03/17 03:20:03;;;;;;;4.05;3.67;;;9.30;99.90;;;;;;5025556;28;20739;-75
2024/03/17 03:22:30;;;;;;;3.42;3.20;;;9.40;99.90;;;;;;5041783;28;20348;-72
2024/03/17 03:24:58;;;;;;;3.55;3.30;;;9.40;99.90;;;;;;5026188;28;20326;-77
2024/03/17 03:27:25;;;;;;;3.42;3.22;;;9.40;99.90;;;;;;5046381;28;22131;-74
2024/03/17 03:29:53;;;;;;;2.78;2.58;;;9.40;99.90;;;;;;5043893;28;20309;-73
2024/03/17 03:32:21;;;;;;;2.67;2.47;;;9.50;99.90;;;;;;5042927;28;20230;-74
2024/03/17 03:34:48;;;;;;;2.95;2.75;;;9.50;99.90;;;;;;5050436;28;20316;-75
2024/03/17 03:37:15;;;;;;;2.72;2.53;;;9.50;99.90;;;;;;5043875;28;20863;-76
2024/03/17 03:39:42;;;;;;;2.92;2.65;;;9.50;99.90;;;;;;5043600;28;20213;-75
2024/03/17 03:42:10;;;;;;;2.80;2.50;;;9.60;99.90;;;;;;5046542;28;20246;-77
2024/03/17 03:44:39;;;;;;;4.40;2.70;;;9.50;99.90;;;;;;5025163;28;20233;-72
2024/03/17 03:47:07;;;;;;;3.03;2.83;;;9.40;99.90;;;;;;5042719;28;20280;-75
2024/03/17 03:49:37;;;;;;;2.40;2.30;;;9.40;99.90;;;;;;5038159;28;20803;-74
2024/03/17 03:52:05;;;;;;;3.03;2.72;;;9.30;99.90;;;;;;5044245;28;20222;-77
2024/03/17 03:54:32;;;;;;;2.22;2.13;;;9.30;99.90;;;;;;5046265;28;20304;-73
2024/03/17 03:56:59;;;;;;;2.65;2.45;;;9.20;99.90;;;;;;5046609;28;20246;-73
2024/03/17 03:59:26;;;;;;;2.55;2.42;;;9.10;99.90;;;;;;5030842;28;20238;-75
2024/03/17 04:01:53;;;;;;;2.10;2.00;;;9.10;99.90;;;;;;5046721;28;20821;-77
2024/03/17 04:04:21;;;;;;;2.20;2.10;;;9.00;99.90;;;;;;5045853;28;20806;-77
2024/03/17 04:06:49;;;;;;;3.35;2.40;;;9.00;99.90;;;;;;5045125;28;20229;-74
2024/03/17 04:09:17;;;;;;;2.78;2.45;;;9.00;99.90;;;;;;5044331;28;20261;-73
2024/03/17 04:11:44;;;;;;;2.33;2.22;;;9.10;99.90;;;;;;5043190;28;20219;-75
2024/03/17 04:14:11;;;;;;;2.45;2.35;;;9.10;99.90;;;;;;5042008;28;20250;-74
2024/03/17 04:16:38;;;;;;;2.70;2.15;;;9.10;99.90;;;;;;5043037;28;20784;-75
2024/03/17 04:19:06;;;;;;;2.28;2.17;;;9.00;99.90;;;;;;5040354;28;20698;-76
2024/03/17 04:21:33;;;;;;;2.42;2.22;;;9.00;99.90;;;;;;5042703;28;20257;-72
2024/03/17 04:24:02;;;;;;;2.15;2.05;;;9.00;99.90;;;;;;5048983;28;20230;-76
2024/03/17 04:26:29;;;;;;;2.00;1.90;;;9.00;99.90;;;;;;5041854;28;20242;-72
2024/03/17 04:28:56;;;;;;;4.22;2.13;;;9.00;99.90;;;;;;5030561;28;20214;-74
2024/03/17 04:31:23;;;;;;;2.25;2.15;;;9.00;99.90;;;;;;5023969;28;20790;-72
2024/03/17 04:33:51;;;;;;;1.80;1.70;;;9.00;99.90;;;;;;5048811;28;20246;-72
2024/03/17 04:36:18;;;;;;;1.98;1.88;;;9.00;99.90;;;;;;5017845;28;20322;-73
2024/03/17 04:38:45;;;;;;;2.30;2.05;;;9.00;99.90;;;;;;5042612;28;21556;-72
2024/03/17 04:41:17;;;;;;;2.10;2.00;;;9.00;99.90;;;;;;5046998;28;20230;-72
2024/03/17 04:43:44;;;;;;;1.60;1.60;;;9.00;99.90;;;;;;5043106;28;20215;-74
2024/03/17 04:46:13;;;;;;;1.95;1.85;;;8.90;99.90;;;;;;5036713;28;20219;-73
2024/03/17 04:48:40;;;;;;;3.70;2.00;;;8.90;99.90;;;;;;5040452;28;20286;-73
2024/03/17 04:51:07;;;;;;;2.13;2.03;;;8.80;99.90;;;;;;5042539;28;20299;-75
2024/03/17 04:53:34;;;;;;;1.75;1.65;;;8.90;99.90;;;;;;5041274;28;20230;-72
2024/03/17 04:56:02;;;;;;;1.75;1.65;;;8.90;99.90;;;;;;5044849;28;20273;-76
2024/03/17 04:58:31;;;;;;;3.65;1.50;;;8.90;99.90;;;;;;5014148;28;20214;-75
2024/03/17 05:00:58;;;;;;;2.22;2.13;;;8.90;99.90;;;;;;5025798;28;20226;-76
2024/03/17 05:03:27;;;;;;;2.20;2.10;;;8.90;99.90;;;;;;5043594;28;20808;-80
2024/03/17 05:06:02;;;;;;;2.00;1.90;;;8.90;99.90;;;;;;5026286;28;20222;-76
2024/03/17 05:08:29;;;;;;;1.60;1.50;;;8.90;99.90;;;;;;5041966;28;20636;-72
2024/03/17 05:11:00;;;;;;;2.17;2.03;;;8.80;99.90;;;;;;5026785;28;20246;-73
2024/03/17 05:13:28;;;;;;;1.90;1.80;;;8.80;99.90;;;;;;5023330;28;20218;-79
2024/03/17 05:15:57;;;;;;;1.85;1.75;;;8.70;99.90;;;;;;5041049;28;20226;-75
2024/03/17 05:18:25;;;;;;;1.95;1.80;;;8.70;99.90;;;;;;5025256;28;20276;-76
2024/03/17 05:21:00;;;;;;;1.95;1.85;;;8.60;99.90;;;;;;5012953;28;20281;-76
2024/03/17 05:23:28;;;;;;;1.88;1.77;;;8.60;99.90;;;;;;5045680;28;20226;-74
2024/03/17 05:25:56;;;;;;;2.00;1.90;;;8.60;99.90;;;;;;5047482;28;20215;-76
2024/03/17 05:28:23;;;;;;;1.92;1.83;;;8.60;99.90;;;;;;5044539;28;20247;-76
2024/03/17 05:30:52;;;;;;;2.05;1.95;;;8.60;99.90;;;;;;5050894;28;20274;-74
2024/03/17 05:33:21;;;;;;;1.75;1.65;;;8.60;99.90;;;;;;5048904;28;20311;-75
2024/03/17 05:35:52;;;;;;;1.95;1.85;;;8.60;99.90;;;;;;5051099;28;20231;-76
2024/03/17 05:38:20;;;;;;;1.88;1.77;;;8.70;99.90;;;;;;5043708;28;20326;-74
2024/03/17 05:40:57;;;;;;;1.98;1.88;;;8.70;99.90;;;;;;5012935;28;20304;-76
2024/03/17 05:43:25;;;;;;;1.80;1.70;;;8.80;99.90;;;;;;5040101;28;20285;-76
2024/03/17 05:45:52;;;;;;;1.92;1.83;;;8.80;99.90;;;;;;5024173;28;20306;-74
2024/03/17 05:48:22;;;;;;;1.80;1.70;;;8.80;99.90;;;;;;5048699;28;20254;-75
2024/03/17 05:50:49;;;;;;;2.10;2.00;;;8.80;99.90;;;;;;5030980;28;20222;-74
2024/03/17 05:53:17;;;;;;;1.88;1.77;;;8.80;99.90;;;;;;5044892;28;20708;-74
2024/03/17 05:55:45;;;;;;;2.00;1.90;;;8.80;99.90;;;;;;5050249;28;20839;-76
2024/03/17 05:58:13;;;;;;;1.90;1.80;;;8.90;99.90;;;;;;5050340;28;20265;-75
2024/03/17 06:00:41;;;;;;;1.80;1.70;;;9.00;99.90;;;;;;5047608;28;20221;-75
2024/03/17 06:03:08;;;;;;;1.63;1.60;;;9.00;99.90;;;;;;5048611;28;20991;-75
2024/03/17 06:05:38;;;;;;;1.92;1.83;;;9.10;99.90;;;;;;5047096;28;20246;-76
2024/03/17 06:08:08;;;;;;;2.08;1.98;;;9.20;99.90;;;;;;5030853;28;20224;-77
2024/03/17 06:10:36;;;;;;;1.67;1.60;;;9.30;99.90;;;;;;5043227;28;20223;-74
2024/03/17 06:13:04;;;;;;;1.73;1.63;;;9.40;99.90;;;;;;5044066;28;20304;-74
2024/03/17 06:15:31;;;;;;;1.80;1.70;;;9.50;99.90;;;;;;5043567;28;20337;-72
2024/03/17 06:18:01;;;;;;;1.83;1.73;;;9.60;99.90;;;;;;5047776;28;20247;-75
2024/03/17 06:20:28;;;;;;;2.05;1.95;;;9.80;99.90;;;;;;5047889;28;20213;-76
2024/03/17 06:22:58;;;;;;;1.67;1.50;;;10.10;99.90;;;;;;5046953;28;20245;-77
2024/03/17 06:25:25;;;;;;;1.70;1.60;;;10.80;99.90;;;;;;5046526;28;20277;-70
2024/03/17 06:27:52;;;;;;;1.90;1.80;;;11.30;99.90;;;;;;5048881;28;20247;-78
2024/03/17 06:30:19;;;;;;;1.73;1.63;;;11.70;99.90;;;;;;5043975;28;20706;-74
2024/03/17 06:32:49;;;;;;;6.70;1.75;;;11.90;99.90;;;;;;5049152;28;20218;-78
2024/03/17 06:35:18;;;;;;;1.70;1.60;;;12.10;99.90;;;;;;5045460;28;20261;-77
2024/03/17 06:37:45;;;;;;;1.55;1.45;;;12.20;99.90;;;;;;5042890;28;20226;-75
2024/03/17 06:40:15;;;;;;;2.05;1.95;;;12.20;99.90;;;;;;5045067;28;20242;-75
2024/03/17 06:42:43;;;;;;;2.17;2.08;;;12.30;99.90;;;;;;5042725;28;20298;-75
2024/03/17 06:45:11;;;;;;;1.75;1.65;;;12.50;99.90;;;;;;5027266;28;20234;-74
2024/03/17 06:47:39;;;;;;;1.85;1.75;;;12.40;99.90;;;;;;5028803;28;20230;-74
2024/03/17 06:50:09;;;;;;;1.65;1.55;;;12.20;99.90;;;;;;5048059;28;20225;-75
2024/03/17 06:52:37;;;;;;;1.95;1.85;;;12.30;99.90;;;;;;5047585;28;20229;-74
2024/03/17 06:55:04;;;;;;;1.58;1.48;;;12.40;99.90;;;;;;5029559;28;20218;-74
2024/03/17 06:57:33;;;;;;;1.55;1.45;;;12.40;99.90;;;;;;5032642;28;20238;-74
2024/03/17 07:00:00;;;;;;;2.00;1.83;;;12.50;99.90;;;;;;5042515;28;20245;-77
2024/03/17 07:02:27;;;;;;;2.00;1.90;;;12.50;99.90;;;;;;5044390;28;20218;-74
2024/03/17 07:04:53;;;;;;;1.75;1.65;;;12.70;99.90;;;;;;5045359;28;20308;-75
2024/03/17 07:07:20;;;;;;;1.88;1.73;;;12.70;99.90;;;;;;5043065;28;20337;-77
2024/03/17 07:09:49;;;;;;;1.92;1.83;;;12.70;99.90;;;;;;5023298;28;20866;-76
2024/03/17 07:12:16;;;;;;;2.20;1.98;;;12.40;99.90;;;;;;5016242;28;20225;-75
2024/03/17 07:14:44;;;;;;;1.90;1.80;;;12.10;99.90;;;;;;5045698;28;20301;-74
2024/03/17 07:17:12;;;;;;;1.95;1.85;;;11.80;99.90;;;;;;5044779;28;20321;-76
2024/03/17 07:19:39;;;;;;;1.70;1.60;;;11.70;99.90;;;;;;5028128;28;20223;-76
2024/03/17 07:22:06;;;;;;;2.30;1.90;;;11.50;99.90;;;;;;5050153;28;20450;-76
2024/03/17 07:24:33;;;;;;;1.80;1.70;;;11.40;99.90;;;;;;5047886;28;20246;-74
2024/03/17 07:27:00;;;;;;;1.75;1.60;;;11.30;99.90;;;;;;5046384;28;20833;-75
2024/03/17 07:29:28;;;;;;;1.73;1.63;;;11.30;99.90;;;;;;5033867;28;20229;-75
2024/03/17 07:31:56;;;;;;;1.75;1.65;;;11.40;99.90;;;;;;5029781;28;20318;-75
2024/03/17 07:34:23;;;;;;;1.98;1.88;;;11.50;99.90;;;;;;5048653;28;20310;-74
2024/03/17 07:36:50;;;;;;;1.70;1.60;;;11.60;99.90;;;;;;5012706;28;20309;-74
2024/03/17 07:39:18;;;;;;;1.80;1.70;;;11.70;99.90;;;;;;5038466;28;20307;-75
2024/03/17 07:41:45;;;;;;;1.88;1.77;;;11.90;99.90;;;;;;5019258;28;20262;-77
2024/03/17 07:44:13;;;;;;;1.65;1.55;;;12.10;99.90;;;;;;5027099;28;20218;-75
2024/03/17 07:46:40;;;;;;;1.92;1.70;;;12.60;99.90;;;;;;5032584;28;20250;-78
2024/03/17 07:49:09;;;;;;;1.70;1.60;;;13.10;99.90;;;;;;5047009;28;20217;-76
2024/03/17 07:51:36;;;;;;;1.50;1.42;;;13.50;99.90;;;;;;5043116;28;20247;-75
2024/03/17 07:54:04;;;;;;;1.73;1.63;;;14.00;99.90;;;;;;5047322;28;20285;-76
2024/03/17 07:56:31;;;;;;;1.98;1.88;;;14.40;99.90;;;;;;5050520;28;21240;-74
2024/03/17 07:58:58;;;;;;;2.17;2.08;;;14.80;99.90;;;;;;5048818;28;20300;-77
2024/03/17 08:01:25;;;;;;;1.73;1.63;;;15.10;99.90;;;;;;5046333;28;20280;-77
2024/03/17 08:03:55;;;;;;;1.75;1.60;;;15.40;99.90;;;;;;5023560;28;20253;-76
2024/03/17 08:06:26;;;;;;;1.75;1.65;;;15.70;99.90;;;;;;5044605;28;20222;-76
2024/03/17 08:08:54;;;;;;;1.92;1.45;;;16.00;99.90;;;;;;5024188;28;20200;-76
2024/03/17 08:11:21;;;;;;;2.22;1.77;;;16.30;99.90;;;;;;5044378;28;20762;-76
2024/03/17 08:13:48;;;;;;;1.60;1.50;;;16.60;99.90;;;;;;5045004;28;20227;-74
2024/03/17 08:16:16;;;;;;;1.80;1.70;;;16.50;99.90;;;;;;5042509;28;20226;-77
2024/03/17 08:18:44;;;;;;;2.00;1.70;;;16.50;99.90;;;;;;5041975;28;20219;-76
2024/03/17 08:21:11;;;;;;;2.25;1.40;;;16.50;99.90;;;;;;5045252;28;20916;-76
2024/03/17 08:23:42;;;;;;;1.70;1.60;;;16.40;99.90;;;;;;5029207;28;20229;-76
2024/03/17 08:26:10;;;;;;;1.55;1.45;;;16.20;99.90;;;;;;5045532;28;20227;-74
2024/03/17 08:28:37;;;;;;;1.40;1.30;;;16.20;99.90;;;;;;5043830;28;20699;-75
2024/03/17 08:31:05;;;;;;;1.60;1.50;;;16.50;99.90;;;;;;5028925;28;20761;-77
2024/03/17 08:33:33;;;;;;;1.50;1.40;;;16.70;99.90;;;;;;5041757;28;20263;-77
2024/03/17 08:36:02;;;;;;;1.30;1.20;;;17.00;99.90;;;;;;5021946;28;20748;-77
2024/03/17 08:38:31;;;;;;;1.38;1.27;;;17.10;99.90;;;;;;5036511;28;20888;-75
2024/03/17 08:41:03;;;;;;;1.40;1.33;;;17.10;99.90;;;;;;5027627;28;20225;-75
2024/03/17 08:43:30;;;;;;;1.65;1.55;;;17.00;99.90;;;;;;5045498;28;20765;-74
2024/03/17 08:45:59;;;;;;;1.40;1.20;;;16.70;99.90;;;;;;5026285;28;20307;-76
2024/03/17 08:48:28;;;;;;;1.40;1.30;;;16.50;99.90;;;;;;5041304;28;20723;-74
2024/03/17 08:50:56;;;;;;;1.70;1.33;;;16.40;99.90;;;;;;5041854;28;20243;-73
2024/03/17 08:53:24;;;;;;;1.60;1.50;;;16.70;99.90;;;;;;5033269;28;20222;-75
2024/03/17 08:55:51;;;;;;;1.40;1.30;;;16.90;99.90;;;;;;5040396;28;20341;-72
2024/03/17 08:58:20;;;;;;;1.27;1.27;;;17.10;99.90;;;;;;5043164;28;20719;-73
2024/03/17 09:00:47;;;;;;;1.30;1.20;;;17.30;99.90;;;;;;5030577;28;20222;-73
2024/03/17 09:03:15;;;;;;;1.33;1.20;;;17.30;99.90;;;;;;5046904;28;20246;-74
2024/03/17 09:05:43;;;;;;;1.33;1.27;;;17.10;99.90;;;;;;5052742;28;20727;-73
2024/03/17 09:08:17;;;;;;;1.20;1.15;;;17.00;99.90;;;;;;5032584;28;20899;-73
2024/03/17 09:10:44;;;;;;;1.40;1.30;;;17.20;99.90;;;;;;5047800;28;20275;-73
2024/03/17 09:13:15;;;;;;;1.23;1.13;;;17.30;99.90;;;;;;5046747;28;20774;-73
2024/03/17 09:15:51;;;;;;;2.15;1.25;;;17.50;99.90;;;;;;5053924;28;20226;-72
2024/03/17 09:18:18;;;;;;;2.17;1.20;;;17.60;99.90;;;;;;5045413;28;20223;-72
2024/03/17 09:20:45;;;;;;;1.40;1.30;;;17.70;99.90;;;;;;5050092;28;20488;-74
2024/03/17 09:23:13;;;;;;;1.45;1.35;;;17.50;99.90;;;;;;5050601;28;20288;-73
2024/03/17 09:25:41;;;;;;;1.10;1.10;;;17.20;99.90;;;;;;5051334;28;20241;-72
2024/03/17 09:28:08;;;;;;;2.63;1.60;;;17.20;99.90;;;;;;5050908;28;20669;-73
2024/03/17 09:30:35;;;;;;;1.13;1.13;;;17.20;99.90;;;;;;5046704;28;20286;-73
2024/03/17 09:33:05;;;;;;;1.30;1.20;;;17.10;99.90;;;;;;5050030;28;20230;-71
2024/03/17 09:35:32;;;;;;;1.20;1.13;;;17.10;99.90;;;;;;5043351;28;20253;-72
2024/03/17 09:37:59;;;;;;;1.10;1.00;;;17.40;99.90;;;;;;5042596;28;20215;-72
2024/03/17 09:40:26;;;;;;;1.13;1.13;;;17.40;99.90;;;;;;5049097;28;20246;-71
2024/03/17 09:42:54;;;;;;;1.02;1.02;;;17.40;99.90;;;;;;5046157;28;20799;-71
2024/03/17 09:45:21;;;;;;;0.90;0.90;;;17.20;99.90;;;;;;5043061;28;20816;-71
2024/03/17 09:47:48;;;;;;;1.02;1.02;;;17.50;99.90;;;;;;5049326;28;20231;-72
2024/03/17 09:50:18;;;;;;;1.23;1.17;;;17.50;99.90;;;;;;5031066;28;21523;-71
2024/03/17 09:52:46;;;;;;;1.25;1.25;;;17.40;99.90;;;;;;5052722;28;20317;-70
2024/03/17 09:55:18;;;;;;;1.00;1.00;;;17.40;99.90;;;;;;5046410;28;20222;-73
2024/03/17 09:57:46;;;;;;;1.35;1.27;;;17.50;99.90;;;;;;5048648;28;20249;-73
2024/03/17 10:00:16;;;;;;;1.20;1.20;;;17.40;99.90;;;;;;5028421;28;20253;-73
2024/03/17 10:02:44;;;;;;;1.20;1.10;;;17.30;99.90;;;;;;5046965;28;20218;-72
2024/03/17 10:05:25;;;;;;;1.38;1.25;;;17.30;99.90;;;;;;5043753;28;20595;-72
2024/03/17 10:07:53;;;;;;;1.23;1.05;;;17.30;99.90;;;;;;5035354;28;20222;-72
2024/03/17 10:10:22;;;;;;;1.20;1.10;;;17.30;99.90;;;;;;5041447;28;20230;-72
2024/03/17 10:12:52;;;;;;;1.13;1.05;;;17.10;99.90;;;;;;5022238;28;20223;-73
2024/03/17 10:15:20;;;;;;;1.20;1.20;;;16.90;99.90;;;;;;5043710;28;20249;-73
2024/03/17 10:17:47;;;;;;;1.10;1.10;;;16.80;99.90;;;;;;5040903;28;21012;-73
2024/03/17 10:20:16;;;;;;;1.05;1.00;;;17.00;99.90;;;;;;5042437;28;20689;-73
2024/03/17 10:23:05;;;;;;;2.28;1.10;;;17.00;99.90;;;;;;5042487;28;20236;-72
2024/03/17 10:25:34;;;;;;;0.93;0.93;;;17.10;99.90;;;;;;5045446;28;20733;-73
2024/03/17 10:28:02;;;;;;;1.15;1.15;;;17.20;99.90;;;;;;5023162;28;20227;-73
2024/03/17 10:30:30;;;;;;;1.02;1.00;;;17.40;99.90;;;;;;5040276;28;20285;-73
2024/03/17 10:33:00;;;;;;;1.00;1.00;;;17.30;99.90;;;;;;5024699;28;20655;-73
2024/03/17 10:35:32;;;;;;;1.10;1.00;;;17.30;99.90;;;;;;5043426;28;20278;-73
2024/03/17 10:38:00;;;;;;;1.00;1.00;;;17.20;99.90;;;;;;5039231;28;20266;-73
2024/03/17 10:40:32;;;;;;;1.00;1.00;;;17.10;99.90;;;;;;5043044;28;20247;-73
2024/03/17 10:43:02;;;;;;;0.95;0.95;;;16.80;99.90;;;;;;5026734;28;20211;-73
2024/03/17 10:45:31;;;;;;;1.00;1.00;;;16.70;99.90;;;;;;5037960;28;20235;-73
2024/03/17 10:48:01;;;;;;;1.00;0.95;;;16.90;99.90;;;;;;5040455;28;20315;-73
2024/03/17 10:50:31;;;;;;;1.17;0.98;;;17.10;99.90;;;;;;5021841;28;20219;-72
2024/03/17 10:53:03;;;;;;;1.20;1.13;;;17.20;99.90;;;;;;5021511;28;20239;-73
2024/03/17 10:55:43;;;;;;;1.10;1.10;;;17.10;99.90;;;;;;5037760;28;20250;-74
2024/03/17 10:58:30;;;;;;;1.15;1.15;;;17.20;99.90;;;;;;5023121;28;20246;-73
2024/03/17 11:00:58;;;;;;;1.10;1.10;;;17.30;99.90;;;;;;5041748;28;20227;-73
2024/03/17 11:03:26;;;;;;;1.20;1.10;;;17.40;99.90;;;;;;5041326;28;20225;-73
2024/03/17 11:06:03;;;;;;;1.25;1.00;;;17.50;99.90;;;;;;5041090;28;20227;-73
2024/03/17 11:08:31;;;;;;;0.98;0.90;;;17.40;99.90;;;;;;5044926;28;20313;-73
2024/03/17 11:11:00;;;;;;;0.93;0.93;;;17.40;99.90;;;;;;5039429;28;20219;-72
2024/03/17 11:13:28;;;;;;;1.00;1.00;;;17.20;99.90;;;;;;5038289;28;20243;-73
2024/03/17 11:16:04;;;;;;;1.15;1.10;;;17.10;99.90;;;;;;5039337;28;20716;-73
2024/03/17 11:18:37;;;;;;;1.08;1.08;;;17.10;99.90;;;;;;5037983;28;21569;-73
2024/03/17 11:21:20;;;;;;;1.10;1.02;;;17.10;99.90;;;;;;5041383;28;20221;-73
2024/03/17 11:23:58;;;;;;;1.20;1.10;;;17.00;99.90;;;;;;5039703;28;20691;-72
2024/03/17 11:26:33;;;;;;;1.02;1.00;;;16.90;99.90;;;;;;5021784;28;20227;-73
2024/03/17 11:29:06;;;;;;;1.00;1.00;;;16.80;99.90;;;;;;5046196;28;20214;-73
2024/03/17 11:31:55;;;;;;;1.60;1.17;;;16.80;99.90;;;;;;5043841;28;20607;-76
2024/03/17 11:34:29;;;;;;;0.70;0.70;;;16.70;99.90;;;;;;5032250;28;20589;-76
2024/03/17 11:36:56;;;;;;;0.90;0.90;;;16.70;99.90;;;;;;5043788;28;20218;-76
2024/03/17 11:39:49;;;;;;;0.90;0.90;;;16.80;99.90;;;;;;5034016;28;20834;-76
2024/03/17 11:42:22;;;;;;;1.00;1.00;;;16.90;99.90;;;;;;5044514;28;20607;-77
2024/03/17 11:45:03;;;;;;;1.00;1.00;;;17.10;99.90;;;;;;5045221;28;20238;-77
2024/03/17 11:47:39;;;;;;;1.13;0.80;;;17.10;99.90;;;;;;5047590;28;20221;-75
2024/03/17 11:50:10;;;;;;;1.00;1.00;;;17.10;99.90;;;;;;5035610;28;20296;-77
2024/03/17 11:52:37;;;;;;;0.73;0.70;;;17.10;99.90;;;;;;5038269;28;20233;-77
2024/03/17 11:55:04;;;;;;;1.35;1.05;;;17.20;99.90;;;;;;5048286;28;20256;-77
2024/03/17 11:57:35;;;;;;;0.90;0.90;;;17.30;99.90;;;;;;5046205;28;20300;-75
2024/03/17 12:00:01;;;;;;;0.90;0.90;;;17.50;99.90;;;;;;5043241;28;20705;-77
2024/03/17 12:02:32;;;;;;;0.90;0.90;;;17.60;99.90;;;;;;5040099;28;20298;-75
2024/03/17 12:05:01;;;;;;;0.98;0.98;;;17.80;99.90;;;;;;5043339;28;20246;-75
2024/03/17 12:07:30;;;;;;;0.80;0.80;;;17.90;99.90;;;;;;5024563;28;20228;-75
2024/03/17 12:09:57;;;;;;;0.77;0.77;;;18.00;99.90;;;;;;5046950;28;20446;-76
2024/03/17 12:12:31;;;;;;;0.75;0.75;;;18.00;99.90;;;;;;5048047;28;20222;-77
2024/03/17 12:14:58;;;;;;;0.80;0.80;;;18.10;99.90;;;;;;5044603;28;20225;-75
2024/03/17 12:17:26;;;;;;;1.15;0.82;;;18.20;99.90;;;;;;5029480;28;20573;-75
2024/03/17 12:19:52;;;;;;;0.70;0.70;;;18.40;99.90;;;;;;5047653;28;20795;-76
2024/03/17 12:22:21;;;;;;;0.90;0.90;;;18.50;99.90;;;;;;5046887;28;20218;-74
2024/03/17 12:24:49;;;;;;;0.80;0.80;;;18.60;99.90;;;;;;5052221;28;20257;-75
2024/03/17 12:27:19;;;;;;;1.33;0.82;;;18.50;99.90;;;;;;5044858;28;20256;-74
2024/03/17 12:29:46;;;;;;;0.80;0.80;;;18.40;99.90;;;;;;5041468;28;20220;-74
2024/03/17 12:32:17;;;;;;;0.70;0.70;;;18.40;99.90;;;;;;5038849;28;20214;-74
2024/03/17 12:34:44;;;;;;;0.90;0.90;;;18.40;99.90;;;;;;5025530;28;20220;-73
2024/03/17 12:37:17;;;;;;;1.13;1.02;;;18.50;99.90;;;;;;5028616;28;20587;-73
2024/03/17 12:39:44;;;;;;;0.80;0.80;;;18.60;99.90;;;;;;5048553;28;20222;-74
2024/03/17 12:42:13;;;;;;;0.80;0.80;;;18.70;99.90;;;;;;5049380;28;21008;-73
2024/03/17 12:44:41;;;;;;;0.90;0.90;;;18.80;99.90;;;;;;5030696;28;20218;-74
2024/03/17 12:47:09;;;;;;;0.77;0.77;;;18.70;99.90;;;;;;5043951;28;20218;-73
2024/03/17 12:49:45;;;;;;;1.08;0.98;;;18.70;99.90;;;;;;5048653;28;20274;-73
2024/03/17 12:52:20;;;;;;;2.90;1.02;;;18.50;99.90;;;;;;5042796;28;20793;-73
2024/03/17 13:00:31;;;;;;;1.40;0.95;;;18.50;99.90;;;;;;5039851;28;20276;-72
2024/03/17 13:00:34;;;;;;;1.92;0.80;;;18.50;99.90;;;;;;4958809;28;20236;-73